createdAt,value
2022-11-10T00:01:11.971Z,31.05
2022-11-10T00:03:40.842Z,31.58
2022-11-10T00:06:10.479Z,31.17
2022-11-10T00:08:40.505Z,31.38
2022-11-10T00:11:09.311Z,32.05
2022-11-10T00:13:59.992Z,31.08
2022-11-10T00:16:45.327Z,30.35
2022-11-10T00:19:13.257Z,30.48
2022-11-10T00:21:41.706Z,30.55
2022-11-10T00:24:11.361Z,31.00
2022-11-10T00:26:39.512Z,31.10
2022-11-10T00:29:07.907Z,30.58
2022-11-10T00:31:38.218Z,31.30
2022-11-10T00:34:07.066Z,31.15
2022-11-10T00:36:36.281Z,30.92
2022-11-10T00:39:05.781Z,30.45
2022-11-10T00:41:36.344Z,30.73
2022-11-10T00:44:04.792Z,30.00
2022-11-10T00:46:33.227Z,30.70
2022-11-10T00:49:01.400Z,30.65
2022-11-10T00:51:30.976Z,30.17
2022-11-10T00:53:58.935Z,29.60
2022-11-10T00:56:27.285Z,29.48
2022-11-10T00:58:56.685Z,29.98
2022-11-10T01:01:29.510Z,29.88
2022-11-10T01:03:57.828Z,29.40
2022-11-10T01:06:28.797Z,29.63
2022-11-10T01:08:56.844Z,29.17
2022-11-10T01:11:27.550Z,29.13
2022-11-10T01:13:58.824Z,29.38
2022-11-10T01:16:29.606Z,29.50
2022-11-10T01:18:59.598Z,30.08
2022-11-10T01:21:28.640Z,29.58
2022-11-10T01:23:58.023Z,29.42
2022-11-10T01:26:26.117Z,29.98
2022-11-10T01:28:56.017Z,29.92
2022-11-10T01:31:25.340Z,29.67
2022-11-10T01:33:53.269Z,30.23
2022-11-10T01:41:43.307Z,29.70
2022-11-10T01:44:17.886Z,30.10
2022-11-10T01:46:47.776Z,30.02
2022-11-10T01:49:18.594Z,29.00
2022-11-10T01:51:52.460Z,29.75
2022-11-10T01:54:23.791Z,29.02
2022-11-10T01:56:54.710Z,28.80
2022-11-10T01:59:27.212Z,29.80
2022-11-10T02:02:01.731Z,29.77
2022-11-10T02:04:31.787Z,29.02
2022-11-10T02:07:00.679Z,28.58
2022-11-10T02:09:28.963Z,29.48
2022-11-10T02:11:58.114Z,29.92
2022-11-10T02:14:26.735Z,28.92
2022-11-10T02:16:56.255Z,29.17
2022-11-10T02:19:25.952Z,28.15
2022-11-10T02:21:55.556Z,28.95
2022-11-10T02:24:23.758Z,28.27
2022-11-10T02:26:55.604Z,29.45
2022-11-10T02:29:24.635Z,29.25
2022-11-10T02:31:53.231Z,29.30
2022-11-10T02:34:21.576Z,28.98
2022-11-10T02:36:49.599Z,29.00
2022-11-10T02:39:19.254Z,28.88
2022-11-10T02:41:47.402Z,28.50
2022-11-10T02:44:15.771Z,30.00
2022-11-10T02:46:44.136Z,28.52
2022-11-10T02:49:12.257Z,29.65
2022-11-10T02:51:40.592Z,28.88
2022-11-10T02:54:08.679Z,29.13
2022-11-10T02:56:40.923Z,28.58
2022-11-10T02:59:09.165Z,29.20
2022-11-10T03:01:37.248Z,29.65
2022-11-10T03:04:05.897Z,29.25
2022-11-10T03:06:34.563Z,29.08
2022-11-10T03:09:02.645Z,29.52
2022-11-10T03:11:32.344Z,29.02
2022-11-10T03:14:02.832Z,29.13
2022-11-10T03:16:31.493Z,28.80
2022-11-10T03:18:59.539Z,29.30
2022-11-10T03:21:27.760Z,29.48
2022-11-10T03:23:55.899Z,28.88
2022-11-10T03:26:24.182Z,28.77
2022-11-10T03:28:52.799Z,28.85
2022-11-10T03:31:22.567Z,29.08
2022-11-10T03:33:50.537Z,29.60
2022-11-10T03:36:21.199Z,29.00
2022-11-10T03:38:49.328Z,29.35
2022-11-10T03:41:20.516Z,29.58
2022-11-10T03:43:49.179Z,29.00
2022-11-10T03:46:17.796Z,29.10
2022-11-10T03:48:53.325Z,28.70
2022-11-10T03:51:22.656Z,28.90
2022-11-10T03:53:50.967Z,28.90
2022-11-10T03:56:19.103Z,29.23
2022-11-10T03:58:47.186Z,29.02
2022-11-10T04:01:15.403Z,29.00
2022-11-10T04:03:48.801Z,28.40
2022-11-10T04:06:38.144Z,28.65
2022-11-10T04:09:07.452Z,29.02
2022-11-10T04:11:53.237Z,29.02
2022-11-10T04:14:38.595Z,28.98
2022-11-10T04:17:06.732Z,28.73
2022-11-10T04:19:37.827Z,29.70
2022-11-10T04:22:07.160Z,29.63
2022-11-10T04:24:35.684Z,29.33
2022-11-10T04:27:03.757Z,29.00
2022-11-10T04:29:31.744Z,28.67
2022-11-10T04:31:59.806Z,29.15
2022-11-10T04:34:27.740Z,29.48
2022-11-10T04:36:55.827Z,29.33
2022-11-10T04:39:25.404Z,29.23
2022-11-10T04:41:56.130Z,29.73
2022-11-10T04:44:27.731Z,28.92
2022-11-10T04:46:56.951Z,28.25
2022-11-10T04:49:25.045Z,28.77
2022-11-10T04:51:53.091Z,28.30
2022-11-10T04:54:21.219Z,28.40
2022-11-10T04:56:50.732Z,29.55
2022-11-10T04:59:18.736Z,29.70
2022-11-10T05:01:46.729Z,28.27
2022-11-10T05:04:14.986Z,28.52
2022-11-10T05:06:43.015Z,29.00
2022-11-10T05:09:11.116Z,28.73
2022-11-10T05:11:39.117Z,29.00
2022-11-10T05:14:08.766Z,28.33
2022-11-10T05:16:37.659Z,28.35
2022-11-10T05:19:06.061Z,28.25
2022-11-10T05:21:34.170Z,29.10
2022-11-10T05:24:02.339Z,29.25
2022-11-10T05:26:30.311Z,28.45
2022-11-10T05:28:58.429Z,29.67
2022-11-10T05:31:27.941Z,28.27
2022-11-10T05:33:56.118Z,28.77
2022-11-10T05:36:24.578Z,28.25
2022-11-10T05:38:55.504Z,28.40
2022-11-10T05:41:23.656Z,28.15
2022-11-10T05:43:51.764Z,27.02
2022-11-10T05:46:19.882Z,27.23
2022-11-10T05:48:49.843Z,28.02
2022-11-10T05:51:17.931Z,27.50
2022-11-10T05:53:45.984Z,26.92
2022-11-10T05:56:14.113Z,27.92
2022-11-10T05:58:42.171Z,28.02
2022-11-10T06:01:10.541Z,27.55
2022-11-10T06:03:47.566Z,26.70
2022-11-10T06:06:18.092Z,26.27
2022-11-10T06:08:46.138Z,27.38
2022-11-10T06:11:14.257Z,26.35
2022-11-10T06:13:42.371Z,26.58
2022-11-10T06:16:10.491Z,26.50
2022-11-10T06:18:38.629Z,26.95
2022-11-10T06:21:08.948Z,25.92
2022-11-10T06:23:38.651Z,26.73
2022-11-10T06:26:06.896Z,26.30
2022-11-10T06:28:37.847Z,25.50
2022-11-10T06:31:08.325Z,25.33
2022-11-10T06:33:36.434Z,25.17
2022-11-10T06:36:04.865Z,25.50
2022-11-10T06:38:33.006Z,25.67
2022-11-10T06:41:02.453Z,25.02
2022-11-10T06:43:30.453Z,25.80
2022-11-10T06:46:00.835Z,26.83
2022-11-10T06:48:29.016Z,25.67
2022-11-10T06:50:57.219Z,25.75
2022-11-10T06:53:27.204Z,25.55
2022-11-10T06:55:55.571Z,26.30
2022-11-10T06:58:28.107Z,25.98
2022-11-10T07:00:56.357Z,25.33
2022-11-10T07:03:25.570Z,25.00
2022-11-10T07:05:53.828Z,25.02
2022-11-10T07:08:24.791Z,24.70
2022-11-10T07:10:55.969Z,24.20
2022-11-10T07:13:25.616Z,24.27
2022-11-10T07:15:53.804Z,24.55
2022-11-10T07:18:23.398Z,24.63
2022-11-10T07:20:51.499Z,24.92
2022-11-10T07:23:19.803Z,24.63
2022-11-10T07:25:48.103Z,24.13
2022-11-10T07:28:16.247Z,24.05
2022-11-10T07:30:46.192Z,23.63
2022-11-10T07:33:16.575Z,24.80
2022-11-10T07:35:57.306Z,24.70
2022-11-10T07:38:25.782Z,24.63
2022-11-10T07:40:54.829Z,24.50
2022-11-10T07:43:24.813Z,24.33
2022-11-10T07:45:55.039Z,25.38
2022-11-10T07:48:23.221Z,25.58
2022-11-10T07:50:52.763Z,24.45
2022-11-10T07:53:22.263Z,25.15
2022-11-10T07:55:50.755Z,25.60
2022-11-10T07:58:19.685Z,24.30
2022-11-10T08:00:49.164Z,24.88
2022-11-10T08:03:21.327Z,24.52
2022-11-10T08:05:49.806Z,24.80
2022-11-10T08:08:20.405Z,24.00
2022-11-10T08:10:48.524Z,24.10
2022-11-10T08:13:16.573Z,24.50
2022-11-10T08:15:44.745Z,24.58
2022-11-10T08:18:34.932Z,25.45
2022-11-10T08:21:06.350Z,24.48
2022-11-10T08:23:37.464Z,25.17
2022-11-10T08:26:06.036Z,23.90
2022-11-10T08:28:36.509Z,25.25
2022-11-10T08:31:06.178Z,24.45
2022-11-10T08:33:37.251Z,25.38
2022-11-10T08:36:06.848Z,25.25
2022-11-10T08:38:35.412Z,25.02
2022-11-10T08:41:06.032Z,26.10
2022-11-10T08:43:40.117Z,24.65
2022-11-10T08:46:08.403Z,26.05
2022-11-10T08:48:37.887Z,24.95
2022-11-10T08:51:19.717Z,25.52
2022-11-10T08:53:47.904Z,25.75
2022-11-10T08:56:16.052Z,25.55
2022-11-10T08:58:52.836Z,25.92
2022-11-10T09:01:24.130Z,25.80
2022-11-10T09:03:53.685Z,25.50
2022-11-10T09:06:21.672Z,25.85
2022-11-10T09:08:50.722Z,26.48
2022-11-10T09:11:18.750Z,27.10
2022-11-10T09:13:46.797Z,25.95
2022-11-10T09:16:14.764Z,26.27
2022-11-10T09:18:42.680Z,26.23
2022-11-10T09:21:13.064Z,26.75
2022-11-10T09:23:40.943Z,26.35
2022-11-10T09:26:08.907Z,28.50
2022-11-10T09:28:36.815Z,27.15
2022-11-10T09:31:04.889Z,27.80
2022-11-10T09:33:32.896Z,27.48
2022-11-10T09:36:02.086Z,26.98
2022-11-10T09:38:31.540Z,28.30
2022-11-10T09:41:02.804Z,28.42
2022-11-10T09:43:36.397Z,27.58
2022-11-10T09:46:10.775Z,27.08
2022-11-10T09:48:44.229Z,28.00
2022-11-10T09:51:18.330Z,27.95
2022-11-10T09:53:52.142Z,29.15
2022-11-10T09:56:23.820Z,28.13
2022-11-10T09:58:52.197Z,27.40
2022-11-10T10:01:34.924Z,27.80
2022-11-10T10:04:17.740Z,27.25
2022-11-10T10:07:10.240Z,27.30
2022-11-10T10:09:49.871Z,27.83
2022-11-10T10:12:31.944Z,27.90
2022-11-10T10:15:13.113Z,27.77
2022-11-10T10:17:51.068Z,27.95
2022-11-10T10:20:25.095Z,27.63
2022-11-10T10:23:05.191Z,28.45
2022-11-10T10:25:35.081Z,28.50
2022-11-10T10:28:08.929Z,28.40
2022-11-10T10:30:36.894Z,29.42
2022-11-10T10:33:15.453Z,29.05
2022-11-10T10:35:44.346Z,28.63
2022-11-10T10:38:26.335Z,28.50
2022-11-10T10:41:01.062Z,29.17
2022-11-10T10:43:29.071Z,27.65
2022-11-10T10:46:09.595Z,28.75
2022-11-10T10:48:37.577Z,28.30
2022-11-10T10:51:05.606Z,28.75
2022-11-10T10:53:33.686Z,28.63
2022-11-10T10:56:08.848Z,29.10
2022-11-10T10:58:51.424Z,28.33
2022-11-10T11:01:27.533Z,29.05
2022-11-10T11:03:55.818Z,28.33
2022-11-10T11:06:27.132Z,29.48
2022-11-10T11:08:59.680Z,29.90
2022-11-10T11:11:31.977Z,29.23
2022-11-10T11:14:20.295Z,29.85
2022-11-10T11:16:51.260Z,29.77
2022-11-10T11:19:21.603Z,28.88
2022-11-10T11:22:03.192Z,29.02
2022-11-10T11:24:41.287Z,28.02
2022-11-10T11:27:19.389Z,28.25
2022-11-10T11:30:05.581Z,29.15
2022-11-10T11:33:05.937Z,29.77
2022-11-10T11:35:44.039Z,29.98
2022-11-10T11:38:15.715Z,30.15
2022-11-10T11:40:49.514Z,30.70
2022-11-10T11:43:44.783Z,31.58
2022-11-10T11:46:21.547Z,30.38
2022-11-10T11:48:53.207Z,31.27
2022-11-10T11:51:28.479Z,30.60
2022-11-10T11:54:21.650Z,30.15
2022-11-10T11:56:51.257Z,29.73
2022-11-10T11:59:36.848Z,30.85
2022-11-10T12:02:33.995Z,29.75
2022-11-10T12:05:18.895Z,30.95
2022-11-10T12:07:56.607Z,31.95
2022-11-10T12:10:38.175Z,30.90
2022-11-10T12:13:26.223Z,30.52
2022-11-10T12:16:01.568Z,32.40
2022-11-10T12:18:36.325Z,32.50
2022-11-10T12:21:23.488Z,31.20
2022-11-10T12:24:10.116Z,31.55
2022-11-10T12:26:49.220Z,32.33
2022-11-10T12:29:28.098Z,32.17
2022-11-10T12:32:06.277Z,31.95
2022-11-10T12:34:40.627Z,33.50
2022-11-10T12:37:17.244Z,32.75
2022-11-10T12:39:51.244Z,32.47
2022-11-10T12:42:22.525Z,32.65
2022-11-10T12:44:59.810Z,33.45
2022-11-10T12:47:33.493Z,32.63
2022-11-10T12:50:25.640Z,33.60
2022-11-10T12:52:56.196Z,33.45
2022-11-10T12:55:34.890Z,32.50
2022-11-10T12:58:04.946Z,32.45
2022-11-10T13:00:37.609Z,33.22
2022-11-10T13:03:13.871Z,32.10
2022-11-10T13:05:45.170Z,33.38
2022-11-10T13:08:33.408Z,33.25
2022-11-10T13:11:08.346Z,34.20
2022-11-10T13:13:46.483Z,33.42
2022-11-10T13:16:49.975Z,34.30
2022-11-10T13:19:53.608Z,33.42
2022-11-10T13:22:37.199Z,33.20
2022-11-10T13:25:43.140Z,32.53
2022-11-10T13:28:11.430Z,33.22
2022-11-10T13:30:42.315Z,33.60
2022-11-10T13:33:36.157Z,32.75
2022-11-10T13:36:06.056Z,33.05
2022-11-10T13:38:41.645Z,33.95
2022-11-10T13:41:25.796Z,33.35
2022-11-10T13:43:55.841Z,32.55
2022-11-10T13:46:34.933Z,31.42
2022-11-10T13:49:31.568Z,32.47
2022-11-10T13:52:10.840Z,32.78
2022-11-10T13:55:05.034Z,32.45
2022-11-10T13:57:37.544Z,31.95
2022-11-10T14:00:25.596Z,31.38
2022-11-10T14:02:57.537Z,33.13
2022-11-10T14:06:03.368Z,31.77
2022-11-10T14:08:39.491Z,32.88
2022-11-10T14:11:19.702Z,32.15
2022-11-10T14:13:51.955Z,32.95
2022-11-10T14:16:23.187Z,31.92
2022-11-10T14:18:57.237Z,32.70
2022-11-10T14:21:31.481Z,32.38
2022-11-10T14:24:08.308Z,33.08
2022-11-10T14:26:38.875Z,33.65
2022-11-10T14:29:28.355Z,33.63
2022-11-10T14:31:57.302Z,32.45
2022-11-10T14:34:25.410Z,34.33
2022-11-10T14:36:55.358Z,34.03
2022-11-10T14:39:29.600Z,33.83
2022-11-10T14:42:00.850Z,34.28
2022-11-10T14:44:31.677Z,33.58
2022-11-10T14:47:14.824Z,32.78
2022-11-10T14:49:43.893Z,33.10
2022-11-10T14:52:15.601Z,34.10
2022-11-10T14:54:47.740Z,33.35
2022-11-10T14:57:19.714Z,34.22
2022-11-10T14:59:48.283Z,33.97
2022-11-10T15:02:19.559Z,34.03
2022-11-10T15:04:51.018Z,34.15
2022-11-10T15:07:19.920Z,34.03
2022-11-10T15:12:43.991Z,33.17
2022-11-10T15:15:22.837Z,32.45
2022-11-10T15:17:52.386Z,32.83
2022-11-10T15:20:38.224Z,33.13
2022-11-10T15:23:16.361Z,32.70
2022-11-10T15:25:46.951Z,33.17
2022-11-10T15:28:28.386Z,32.08
2022-11-10T15:30:58.522Z,31.83
2022-11-10T15:33:33.200Z,31.88
2022-11-10T15:36:17.624Z,31.15
2022-11-10T15:38:45.545Z,31.27
2022-11-10T15:41:16.836Z,31.20
2022-11-10T15:43:48.044Z,31.08
2022-11-10T15:46:19.441Z,30.80
2022-11-10T15:48:49.586Z,32.35
2022-11-10T15:51:25.694Z,31.30
2022-11-10T15:53:55.448Z,31.60
2022-11-10T15:56:25.468Z,31.55
2022-11-10T15:59:00.698Z,31.77
2022-11-10T16:01:31.588Z,31.63
2022-11-10T16:03:59.567Z,31.15
2022-11-10T16:06:29.933Z,30.05
2022-11-10T16:08:58.102Z,30.52
2022-11-10T16:11:26.219Z,30.60
2022-11-10T16:13:58.696Z,30.55
2022-11-10T16:16:26.551Z,30.77
2022-11-10T16:18:55.436Z,30.73
2022-11-10T16:21:25.467Z,30.90
2022-11-10T16:23:54.425Z,29.45
2022-11-10T16:26:24.772Z,29.33
2022-11-10T16:28:52.721Z,29.13
2022-11-10T16:31:23.046Z,29.75
2022-11-10T16:33:51.628Z,31.27
2022-11-10T16:36:28.201Z,29.85
2022-11-10T16:38:57.107Z,29.33
2022-11-10T16:41:28.228Z,29.00
2022-11-10T16:43:56.300Z,28.92
2022-11-10T16:46:29.038Z,29.67
2022-11-10T16:48:59.788Z,29.35
2022-11-10T16:51:30.328Z,29.55
2022-11-10T16:53:59.421Z,29.45
2022-11-10T16:56:27.451Z,29.55
2022-11-10T16:58:55.370Z,29.10
2022-11-10T17:01:28.099Z,28.92
2022-11-10T17:04:02.415Z,28.52
2022-11-10T17:06:31.540Z,28.38
2022-11-10T17:09:08.268Z,28.95
2022-11-10T17:11:36.274Z,30.38
2022-11-10T17:14:04.413Z,29.05
2022-11-10T17:16:36.936Z,30.42
2022-11-10T17:19:08.600Z,29.88
2022-11-10T17:21:37.361Z,30.10
2022-11-10T17:24:06.704Z,29.70
2022-11-10T17:26:35.516Z,30.70
2022-11-10T17:29:03.680Z,30.35
2022-11-10T17:31:33.923Z,30.52
2022-11-10T17:34:04.977Z,30.75
2022-11-10T17:36:34.898Z,31.77
2022-11-10T17:39:06.028Z,31.52
2022-11-10T17:41:35.511Z,31.95
2022-11-10T17:44:03.492Z,32.25
2022-11-10T17:46:32.866Z,32.40
2022-11-10T17:49:03.235Z,31.92
2022-11-10T17:51:34.167Z,32.30
2022-11-10T17:54:04.695Z,31.98
2022-11-10T17:56:33.225Z,31.40
2022-11-10T17:59:01.490Z,32.58
2022-11-10T18:01:29.606Z,31.08
2022-11-10T18:03:59.554Z,31.55
2022-11-10T18:06:27.653Z,31.58
2022-11-10T18:08:55.618Z,31.67
2022-11-10T18:11:23.777Z,31.50
2022-11-10T18:13:51.769Z,32.15
2022-11-10T18:16:20.011Z,32.63
2022-11-10T18:18:48.534Z,31.38
2022-11-10T18:21:18.099Z,31.63
2022-11-10T18:23:46.146Z,32.38
2022-11-10T18:26:14.191Z,31.45
2022-11-10T18:28:43.346Z,31.95
2022-11-10T18:31:13.621Z,31.70
2022-11-10T18:33:42.549Z,31.98
2022-11-10T18:36:11.386Z,30.80
2022-11-10T18:38:40.849Z,31.80
2022-11-10T18:41:26.408Z,32.40
2022-11-10T18:43:54.457Z,30.38
2022-11-10T18:46:22.448Z,30.63
2022-11-10T18:48:50.829Z,30.83
2022-11-10T18:51:21.286Z,31.77
2022-11-10T18:53:50.717Z,30.92
2022-11-10T18:56:18.899Z,31.15
2022-11-10T18:58:56.233Z,31.40
2022-11-10T19:01:27.548Z,30.75
2022-11-10T19:03:55.992Z,30.70
2022-11-10T19:06:24.407Z,30.73
2022-11-10T19:08:53.870Z,30.38
2022-11-10T19:11:28.046Z,31.52
2022-11-10T19:13:56.279Z,29.80
2022-11-10T19:16:24.325Z,29.67
2022-11-10T19:18:52.241Z,30.75
2022-11-10T19:21:22.272Z,29.95
2022-11-10T19:23:50.484Z,30.40
2022-11-10T19:26:23.049Z,30.42
2022-11-10T19:28:53.233Z,30.85
2022-11-10T19:31:22.923Z,30.35
2022-11-10T19:33:52.288Z,30.48
2022-11-10T19:36:22.264Z,29.98
2022-11-10T19:38:54.350Z,29.75
2022-11-10T19:41:25.897Z,30.20
2022-11-10T19:43:54.022Z,31.13
2022-11-10T19:46:23.387Z,30.58
2022-11-10T19:48:55.353Z,31.25
2022-11-10T19:51:24.571Z,30.15
2022-11-10T19:53:58.932Z,30.08
2022-11-10T19:56:31.976Z,31.58
2022-11-10T19:59:01.129Z,31.02
2022-11-10T20:01:29.358Z,31.10
2022-11-10T20:03:58.677Z,31.30
2022-11-10T20:06:27.044Z,31.27
2022-11-10T20:08:55.865Z,31.92
2022-11-10T20:11:26.212Z,31.70
2022-11-10T20:13:59.035Z,32.22
2022-11-10T20:16:27.313Z,31.17
2022-11-10T20:18:55.292Z,31.85
2022-11-10T20:21:23.958Z,31.95
2022-11-10T20:23:55.688Z,32.55
2022-11-10T20:26:25.209Z,32.08
2022-11-10T20:28:53.227Z,32.55
2022-11-10T20:31:24.682Z,33.63
2022-11-10T20:33:54.311Z,33.15
2022-11-10T20:36:25.890Z,32.53
2022-11-10T20:38:55.365Z,32.22
2022-11-10T20:41:25.807Z,32.25
2022-11-10T20:43:53.767Z,32.85
2022-11-10T20:46:53.463Z,32.50
2022-11-10T20:49:14.385Z,33.88
2022-11-10T20:51:43.504Z,33.10
2022-11-10T20:54:11.415Z,33.05
2022-11-10T20:56:39.408Z,32.92
2022-11-10T20:59:07.760Z,33.83
2022-11-10T21:01:37.993Z,33.45
2022-11-10T21:04:06.828Z,33.35
2022-11-10T21:06:35.621Z,32.95
2022-11-10T21:09:03.611Z,33.03
2022-11-10T21:11:55.067Z,33.92
2022-11-10T21:14:22.930Z,33.63
2022-11-10T21:16:52.199Z,34.35
2022-11-10T21:19:20.112Z,32.85
2022-11-10T21:21:48.159Z,33.47
2022-11-10T21:24:16.105Z,33.42
2022-11-10T21:26:44.127Z,33.47
2022-11-10T21:29:12.580Z,34.63
2022-11-10T21:31:40.522Z,33.35
2022-11-10T21:34:10.287Z,34.75
2022-11-10T21:36:38.676Z,33.28
2022-11-10T21:39:06.719Z,33.65
2022-11-10T21:41:37.512Z,33.83
2022-11-10T21:44:05.917Z,32.97
2022-11-10T21:46:33.864Z,33.50
2022-11-10T21:49:07.123Z,32.95
2022-11-10T21:51:39.661Z,34.00
2022-11-10T21:54:07.682Z,34.38
2022-11-10T21:56:35.657Z,34.78
2022-11-10T21:59:03.652Z,35.13
2022-11-10T22:01:31.718Z,34.38
2022-11-10T22:03:59.767Z,34.28
2022-11-10T22:06:50.907Z,34.22
2022-11-10T22:09:40.277Z,34.47
2022-11-10T22:12:29.847Z,33.40
2022-11-10T22:15:15.237Z,33.92
2022-11-10T22:18:08.234Z,33.00
2022-11-10T22:20:36.561Z,32.58
2022-11-10T22:23:04.530Z,32.63
2022-11-10T22:25:34.308Z,33.47
2022-11-10T22:28:05.178Z,32.78
2022-11-10T22:30:35.885Z,33.53
2022-11-10T22:33:24.191Z,33.65
2022-11-10T22:35:57.903Z,34.10
2022-11-10T22:38:28.576Z,34.72
2022-11-10T22:41:17.767Z,34.33
2022-11-10T22:44:03.154Z,34.35
2022-11-10T22:46:33.295Z,35.05
2022-11-10T22:49:01.344Z,35.35
2022-11-10T22:51:34.531Z,36.28
2022-11-10T22:54:03.023Z,36.42
2022-11-10T22:56:33.598Z,36.85
2022-11-10T22:59:01.644Z,35.70
2022-11-10T23:01:29.958Z,35.38
2022-11-10T23:03:58.879Z,35.75
2022-11-10T23:06:27.275Z,36.85
2022-11-10T23:08:55.832Z,36.63
2022-11-10T23:11:25.492Z,37.55
2022-11-10T23:13:54.913Z,37.53
2022-11-10T23:16:24.106Z,36.67
2022-11-10T23:18:56.188Z,36.55
2022-11-10T23:21:27.153Z,37.47
2022-11-10T23:23:56.063Z,37.88
2022-11-10T23:26:25.497Z,38.28
2022-11-10T23:28:55.206Z,37.88
2022-11-10T23:31:24.659Z,37.85
2022-11-10T23:33:54.879Z,37.75
2022-11-10T23:36:24.897Z,39.25
2022-11-10T23:38:53.233Z,40.15
2022-11-10T23:41:23.649Z,38.58
2022-11-10T23:43:51.892Z,38.55
2022-11-10T23:46:21.265Z,38.67
2022-11-10T23:48:49.406Z,40.17
2022-11-10T23:51:20.907Z,39.83
2022-11-10T23:53:48.916Z,39.53
2022-11-10T23:56:19.419Z,40.25
2022-11-10T23:58:47.304Z,40.72
